Time;durP1;ratioP1;P1;durP2;ratioP2;P2;SDS_P1;SDS_P2;PMS_P1;PMS_P2;Temp;Humidity;BMP_temperature;BMP_pressure;BME280_temperature;BME280_humidity;BME280_pressure;Samples;Min_cycle;Max_cycle;Signal;HPM_P1;HPM_P2
2022/06/21 00:01:31;;;;;;;0.40;0.40;;;14.10;99.90;13.60;101550.00;;;;5074666;28;20271;-68
2022/06/21 00:04:04;;;;;;;1.27;1.27;;;13.90;99.90;13.70;101549.00;;;;5057753;28;20205;-67
2022/06/21 00:06:50;;;;;;;0.50;0.50;;;13.90;99.90;14.30;101545.00;;;;5058019;28;20641;-67
2022/06/21 00:09:34;;;;;;;0.50;0.50;;;14.00;99.90;14.40;101536.00;;;;5057043;28;20185;-68
2022/06/21 00:12:18;;;;;;;1.07;1.07;;;14.20;99.90;14.60;101522.00;;;;5057426;28;20214;-67
2022/06/21 00:15:04;;;;;;;0.50;0.50;;;14.30;99.90;14.40;101531.00;;;;5072875;28;20225;-68
2022/06/21 00:21:39;;;;;;;0.50;0.50;;;14.40;99.90;14.50;101514.00;;;;5075652;28;20338;-68
2022/06/21 00:24:23;;;;;;;0.50;0.50;;;14.50;99.90;14.20;101521.00;;;;5057125;28;20178;-68
2022/06/21 00:27:17;;;;;;;0.60;0.60;;;14.20;99.90;13.90;101515.00;;;;5057294;28;20187;-68
2022/06/21 00:30:02;;;;;;;1.13;1.13;;;14.10;99.90;13.60;101476.00;;;;5073682;28;20170;-68
2022/06/21 00:32:57;;;;;;;0.50;0.50;;;13.90;99.90;13.70;101514.00;;;;5055858;28;20554;-67
2022/06/21 00:35:47;;;;;;;0.40;0.40;;;13.70;99.90;14.30;101514.00;;;;5055677;28;20301;-68
2022/06/21 00:38:35;;;;;;;0.47;0.47;;;13.90;99.90;14.10;101520.00;;;;5057455;28;20190;-67
2022/06/21 00:41:21;;;;;;;0.50;0.50;;;13.90;99.90;14.90;101516.00;;;;5041973;28;20194;-68
2022/06/21 00:44:14;;;;;;;0.50;0.50;;;14.20;99.90;14.40;101495.00;;;;5055224;28;20190;-67
2022/06/21 00:47:06;;;;;;;0.70;0.70;;;14.10;99.90;15.00;101525.00;;;;5055493;28;20194;-68
2022/06/21 00:49:58;;;;;;;0.50;0.50;;;14.30;99.90;14.40;101524.00;;;;5057550;28;20216;-68
2022/06/21 00:52:48;;;;;;;0.60;0.60;;;14.10;99.90;14.20;101532.00;;;;5073167;28;20333;-68
2022/06/21 00:55:42;;;;;;;0.87;0.87;;;13.90;99.90;13.90;101528.00;;;;5054443;28;20177;-68
2022/06/21 00:58:33;;;;;;;0.60;0.60;;;13.70;99.90;13.70;101481.00;;;;5073050;28;20166;-68
2022/06/21 01:01:24;;;;;;;0.60;0.60;;;13.50;99.90;13.60;101511.00;;;;5055545;28;20229;-68
2022/06/21 01:04:24;;;;;;;0.60;0.60;;;13.50;99.90;14.50;101509.00;;;;5074416;28;20190;-68
2022/06/21 01:07:13;;;;;;;0.60;0.60;;;13.70;99.90;14.60;101522.00;;;;5072468;28;20280;-68
2022/06/21 01:09:59;;;;;;;0.60;0.60;;;13.80;99.90;14.40;101492.00;;;;5071635;28;20209;-68
2022/06/21 01:12:52;;;;;;;0.70;0.70;;;13.90;99.90;14.40;101530.00;;;;5072289;28;20210;-67
2022/06/21 01:15:40;;;;;;;0.70;0.70;;;13.90;99.90;14.00;101518.00;;;;5073124;28;20640;-67
2022/06/21 01:18:26;;;;;;;0.60;0.60;;;13.80;99.90;13.30;101514.00;;;;5071595;28;20640;-68
2022/06/21 01:21:12;;;;;;;0.60;0.60;;;13.50;99.90;13.10;101482.00;;;;5072542;28;20173;-68
2022/06/21 01:23:50;;;;;;;0.73;0.73;;;13.30;99.90;13.40;101524.00;;;;5072468;28;20262;-68
2022/06/21 01:26:41;;;;;;;0.50;0.50;;;13.30;99.90;14.00;101507.00;;;;5072995;28;20235;-68
2022/06/21 01:29:31;;;;;;;0.87;0.87;;;13.60;99.90;14.20;101516.00;;;;5072227;28;20601;-68
2022/06/21 01:32:14;;;;;;;0.50;0.50;;;13.70;99.90;14.80;101517.00;;;;5055873;28;20216;-68
2022/06/21 01:35:04;;;;;;;0.60;0.60;;;14.10;99.90;14.90;101503.00;;;;5072260;28;20269;-68
2022/06/21 01:37:48;;;;;;;0.70;0.70;;;14.20;99.90;14.60;101472.00;;;;5054073;28;20223;-68
2022/06/21 01:40:36;;;;;;;0.70;0.70;;;14.20;99.90;14.90;101491.00;;;;5054060;28;20229;-68
2022/06/21 01:43:24;;;;;;;0.60;0.60;;;14.30;99.90;14.20;101481.00;;;;5055873;28;20660;-68
2022/06/21 01:46:29;;;;;;;0.70;0.70;;;14.20;99.90;14.00;101486.00;;;;5054129;28;20722;-67
2022/06/21 01:49:21;;;;;;;0.60;0.60;;;13.90;99.90;13.80;101473.00;;;;5071501;28;20257;-67
2022/06/21 01:52:21;;;;;;;0.50;0.50;;;13.80;99.90;13.70;101467.00;;;;5055873;28;20214;-68
2022/06/21 01:55:16;;;;;;;0.57;0.57;;;13.70;99.90;13.40;101478.00;;;;5044486;28;20197;-68
2022/06/21 01:58:02;;;;;;;0.50;0.50;;;13.60;99.90;13.50;101458.00;;;;5055150;28;20181;-67
2022/06/21 02:00:39;;;;;;;0.40;0.40;;;13.40;99.90;13.20;101450.00;;;;5072087;28;20170;-67
2022/06/21 02:03:32;;;;;;;0.50;0.50;;;13.30;99.90;13.90;101452.00;;;;5071345;28;20574;-67
2022/06/21 02:06:17;;;;;;;0.50;0.50;;;13.40;99.90;14.20;101420.00;;;;5055344;28;20266;-67
2022/06/21 02:08:57;;;;;;;0.60;0.60;;;13.50;99.90;14.10;101451.00;;;;5071523;28;20187;-67
2022/06/21 02:11:47;;;;;;;0.50;0.50;;;13.60;99.90;13.30;101443.00;;;;5055493;28;20209;-67
2022/06/21 02:14:37;;;;;;;0.50;0.50;;;13.30;99.90;13.80;101457.00;;;;5055837;28;20283;-67
2022/06/21 02:17:24;;;;;;;0.70;0.70;;;13.20;99.90;14.20;101443.00;;;;5072083;28;20536;-67
2022/06/21 02:20:23;;;;;;;0.70;0.70;;;13.50;99.90;14.00;101402.00;;;;5070291;28;20236;-67
2022/06/21 02:23:12;;;;;;;0.70;0.70;;;13.50;99.90;13.60;101434.00;;;;5055607;28;20552;-67
2022/06/21 02:25:57;;;;;;;0.90;0.90;;;13.30;99.90;13.80;101411.00;;;;5055999;28;20265;-67
2022/06/21 02:32:41;;;;;;;0.67;0.67;;;13.10;99.90;13.30;101424.00;;;;5087910;28;20235;-67
2022/06/21 02:35:39;;;;;;;0.60;0.60;;;12.90;99.90;13.60;101452.00;;;;5072275;28;20178;-67
2022/06/21 02:38:27;;;;;;;0.70;0.70;;;13.00;99.90;13.10;101452.00;;;;5054021;28;20177;-67
2022/06/21 02:41:23;;;;;;;0.70;0.70;;;13.00;99.90;13.50;101458.00;;;;5071524;28;20189;-67
2022/06/21 02:44:12;;;;;;;0.80;0.80;;;13.00;99.90;13.80;101442.00;;;;5071934;28;20184;-67
2022/06/21 02:47:00;;;;;;;0.70;0.70;;;13.10;99.90;12.80;101439.00;;;;5070321;28;20235;-67
2022/06/21 02:50:09;;;;;;;0.60;0.60;;;12.90;99.90;13.30;101442.00;;;;5054943;28;20532;-67
2022/06/21 02:52:55;;;;;;;0.77;0.77;;;12.90;99.90;13.70;101416.00;;;;5056239;28;20217;-68
2022/06/21 02:55:45;;;;;;;0.70;0.70;;;13.10;99.90;14.00;101372.00;;;;5071306;28;20215;-67
2022/06/21 02:58:36;;;;;;;0.80;0.80;;;13.20;99.90;13.30;101387.00;;;;5055123;28;20212;-67
2022/06/21 03:01:34;;;;;;;2.60;2.50;;;13.10;99.90;13.30;101417.00;;;;5072037;28;20177;-68
2022/06/21 03:05:06;;;;;;;1.00;1.00;;;13.00;99.90;13.50;101406.00;;;;5070335;28;20227;-68
2022/06/21 03:07:58;;;;;;;0.70;0.70;;;13.10;99.90;13.30;101393.00;;;;5066352;28;20254;-68
2022/06/21 03:10:59;;;;;;;1.10;1.10;;;12.90;99.90;13.10;101388.00;;;;5067338;28;20193;-68
2022/06/21 03:13:49;;;;;;;1.20;1.20;;;12.90;99.90;13.30;101344.00;;;;5054943;28;20181;-68
2022/06/21 03:16:34;;;;;;;0.80;0.80;;;12.80;99.90;13.60;101343.00;;;;5062347;28;20714;-68
2022/06/21 03:19:29;;;;;;;2.13;1.93;;;13.00;99.90;13.80;101382.00;;;;5056434;28;20189;-68
2022/06/21 03:22:24;;;;;;;0.80;0.80;;;13.10;99.90;13.80;101401.00;;;;5058408;28;20193;-68
2022/06/21 03:25:24;;;;;;;0.90;0.90;;;13.10;99.90;13.10;101399.00;;;;5057914;28;20268;-67
2022/06/21 03:28:07;;;;;;;0.80;0.80;;;13.00;99.90;13.60;101364.00;;;;5069461;28;20200;-67
2022/06/21 03:31:00;;;;;;;0.90;0.90;;;13.00;99.90;13.80;101397.00;;;;5095131;28;20189;-67
2022/06/21 03:33:48;;;;;;;0.90;0.90;;;13.00;99.90;13.70;101397.00;;;;5094645;28;20588;-67
2022/06/21 03:36:35;;;;;;;0.80;0.80;;;13.10;99.90;13.70;101400.00;;;;5094303;28;20176;-67
2022/06/21 03:42:33;;;;;;;0.80;0.80;;;13.10;99.90;13.10;101402.00;;;;5095733;28;20324;-67
2022/06/21 03:46:03;;;;;;;0.70;0.70;;;12.90;99.90;13.00;101409.00;;;;5078062;28;20172;-66
2022/06/21 03:49:00;;;;;;;0.70;0.70;;;12.80;99.90;13.40;101409.00;;;;5079677;28;20200;-67
2022/06/21 03:52:13;;;;;;;0.60;0.60;;;12.90;99.90;13.30;101400.00;;;;5077759;28;20192;-67
2022/06/21 03:54:59;;;;;;;0.70;0.70;;;13.00;99.90;13.60;101413.00;;;;5094762;28;20177;-67
2022/06/21 03:57:55;;;;;;;0.70;0.70;;;13.00;99.90;13.70;101391.00;;;;5095128;28;20181;-67
2022/06/21 04:00:47;;;;;;;0.60;0.60;;;13.10;99.90;13.90;101387.00;;;;5094118;28;20256;-67
2022/06/21 04:03:37;;;;;;;0.63;0.63;;;13.30;99.90;14.30;101395.00;;;;5077963;28;20185;-67
2022/06/21 04:06:16;;;;;;;0.60;0.60;;;13.50;99.90;14.00;101388.00;;;;5092941;28;20647;-67
2022/06/21 04:09:07;;;;;;;0.70;0.70;;;13.60;99.90;14.00;101341.00;;;;5077581;28;20324;-67
2022/06/21 04:12:02;;;;;;;0.67;0.67;;;13.60;99.90;14.30;101375.00;;;;5094542;28;20196;-67
2022/06/21 04:14:58;;;;;;;1.07;1.07;;;13.70;99.90;14.30;101377.00;;;;5093603;28;20173;-67
2022/06/21 04:18:04;;;;;;;0.70;0.70;;;13.70;99.90;14.10;101377.00;;;;5094084;28;20638;-67
2022/06/21 04:20:53;;;;;;;0.50;0.50;;;13.70;99.90;14.60;101374.00;;;;5076319;28;20301;-67
2022/06/21 04:23:54;;;;;;;0.50;0.50;;;14.00;99.90;14.70;101364.00;;;;5083161;28;20229;-68
2022/06/21 04:26:46;;;;;;;0.40;0.40;;;14.20;99.90;15.80;101378.00;;;;5081152;28;20728;-68
2022/06/21 04:29:22;;;;;;;0.30;0.30;;;14.70;99.90;16.40;101387.00;;;;5094120;28;20188;-68
2022/06/21 04:32:16;;;;;;;0.57;0.50;;;15.50;99.90;17.30;101385.00;;;;5075660;28;20712;-68
2022/06/21 04:35:07;;;;;;;0.20;0.20;;;16.30;99.90;17.60;101379.00;;;;5077014;28;20355;-68
2022/06/21 04:38:07;;;;;;;1.43;0.90;;;16.70;99.90;17.90;101373.00;;;;5076356;28;20178;-67
2022/06/21 04:41:16;;;;;;;0.20;0.20;;;17.20;99.90;18.40;101391.00;;;;5094232;28;20173;-68
2022/06/21 04:43:58;;;;;;;0.30;0.30;;;17.70;99.90;18.80;101412.00;;;;5093987;28;20178;-67
2022/06/21 04:47:05;;;;;;;0.20;0.20;;;18.00;99.90;18.50;101406.00;;;;5092948;28;20725;-69
2022/06/21 04:50:23;;;;;;;0.20;0.20;;;17.90;99.90;18.60;101410.00;;;;5092545;28;20200;-68
2022/06/21 04:53:39;;;;;;;0.20;0.20;;;18.50;99.90;19.90;101424.00;;;;5089751;28;20216;-68
2022/06/21 04:56:13;;;;;;;0.13;0.13;;;18.90;99.90;19.30;101433.00;;;;5056016;28;20189;-68
2022/06/21 04:58:58;;;;;;;0.10;0.10;;;18.90;99.90;19.30;101421.00;;;;5074668;28;20257;-68
2022/06/21 05:01:42;;;;;;;0.10;0.10;;;18.70;99.90;20.30;101437.00;;;;5057107;28;20190;-68
2022/06/21 05:04:19;;;;;;;0.10;0.10;;;19.10;99.90;20.90;101453.00;;;;5056545;28;20188;-68
2022/06/21 05:07:11;;;;;;;0.10;0.10;;;19.50;99.90;19.60;101444.00;;;;5074737;28;20177;-68
2022/06/21 05:09:56;;;;;;;0.30;0.30;;;19.30;99.90;21.70;101472.00;;;;5056717;28;20541;-69
2022/06/21 05:12:40;;;;;;;0.40;0.40;;;20.10;99.90;21.80;101477.00;;;;5056123;28;20212;-69
2022/06/21 05:15:31;;;;;;;0.45;0.45;;;20.50;99.90;20.60;101476.00;;;;5056328;28;20215;-69
2022/06/21 05:18:33;;;;;;;1.67;1.15;;;20.50;99.90;18.80;101442.00;;;;5056497;28;20193;-68
2022/06/21 05:21:33;;;;;;;0.95;0.95;;;19.30;99.90;18.10;101396.00;;;;5069701;28;20663;-69
2022/06/21 05:24:17;;;;;;;0.50;0.50;;;18.50;99.90;18.80;101397.00;;;;5056488;28;20189;-69
2022/06/21 05:27:09;;;;;;;0.65;0.65;;;18.20;99.90;18.70;101403.00;;;;5056068;28;20303;-69
2022/06/21 05:30:01;;;;;;;0.20;0.20;;;18.10;99.90;17.80;101380.00;;;;5059528;28;20249;-69
2022/06/21 05:32:56;;;;;;;0.22;0.22;;;18.00;99.90;17.60;101386.00;;;;5080397;28;20224;-69
2022/06/21 05:36:02;;;;;;;0.40;0.40;;;17.90;99.90;19.80;101429.00;;;;5068448;28;20207;-69
2022/06/21 05:39:37;;;;;;;0.60;0.60;;;18.80;99.90;21.60;101465.00;;;;5076634;28;20185;-69
2022/06/21 05:42:23;;;;;;;1.08;0.98;;;19.90;99.90;19.50;101468.00;;;;5087091;28;20196;-69
2022/06/21 05:45:13;;;;;;;0.13;0.13;;;19.90;99.90;20.50;101471.00;;;;5093322;28;20184;-69
2022/06/21 05:48:32;;;;;;;0.20;0.20;;;19.60;99.90;21.10;101494.00;;;;5092838;28;20189;-69
2022/06/21 05:51:26;;;;;;;0.52;0.52;;;20.10;99.90;20.20;101478.00;;;;5067163;28;20192;-68
2022/06/21 05:55:19;;;;;;;0.60;0.60;;;19.70;99.90;19.00;101477.00;;;;5092517;28;20192;-68
2022/06/21 05:58:10;;;;;;;1.17;0.40;;;19.30;99.90;19.20;101497.00;;;;5093067;28;20181;-68
2022/06/21 06:00:45;;;;;;;0.20;0.20;;;19.00;99.90;18.50;101436.00;;;;5075676;28;20176;-68
2022/06/21 06:03:43;;;;;;;0.85;0.85;;;18.50;99.90;20.90;101513.00;;;;5092596;28;20631;-68
2022/06/21 06:06:35;;;;;;;0.45;0.45;;;19.50;99.90;20.80;101532.00;;;;5087634;28;20192;-69
2022/06/21 06:09:34;;;;;;;0.20;0.20;;;20.30;99.90;20.10;101518.00;;;;5060790;28;20181;-68
2022/06/21 06:12:24;;;;;;;0.40;0.40;;;19.80;99.90;21.60;101545.00;;;;5075776;28;20204;-69
2022/06/21 06:15:15;;;;;;;0.70;0.70;;;20.40;99.90;18.60;101490.00;;;;5075034;28;20176;-68
2022/06/21 06:17:56;;;;;;;0.10;0.10;;;19.60;99.90;22.20;101550.00;;;;5092343;28;20180;-69
2022/06/21 06:20:46;;;;;;;0.10;0.10;;;20.70;99.90;23.20;101566.00;;;;5093453;28;20173;-67
2022/06/21 06:23:54;;;;;;;0.20;0.20;;;21.60;99.90;22.40;101589.00;;;;5092381;28;20241;-68
2022/06/21 06:26:41;;;;;;;0.70;0.63;;;22.00;99.90;22.90;101593.00;;;;5011241;28;20199;-68
2022/06/21 06:29:54;;;;;;;0.30;0.30;;;22.00;99.90;23.10;101589.00;;;;4979123;28;20618;-68
2022/06/21 06:32:46;;;;;;;1.10;1.10;;;22.60;99.90;22.80;101578.00;;;;4994686;28;20346;-68
2022/06/21 06:35:40;;;;;;;0.10;0.10;;;21.80;99.90;24.80;101591.00;;;;5010269;28;20176;-68
2022/06/21 06:38:44;;;;;;;1.48;1.13;;;23.00;99.90;22.30;101585.00;;;;4995051;28;20206;-68
2022/06/21 06:41:26;;;;;;;1.88;0.35;;;22.00;99.90;23.30;101599.00;;;;4978792;28;20214;-68
2022/06/21 06:44:14;;;;;;;0.20;0.20;;;22.10;99.90;23.40;101559.00;;;;4994710;28;20191;-68
2022/06/21 06:47:21;;;;;;;0.30;0.30;;;22.40;99.90;20.50;101557.00;;;;4978238;28;20538;-68
2022/06/21 06:50:15;;;;;;;0.50;0.50;;;20.90;99.90;20.70;101546.00;;;;4994641;28;20194;-67
2022/06/21 06:53:08;;;;;;;1.90;0.68;;;20.20;99.90;21.40;101524.00;;;;4994559;28;20218;-67
2022/06/21 06:56:11;;;;;;;0.38;0.38;;;20.30;99.90;20.50;101538.00;;;;5020129;28;20648;-68
2022/06/21 06:59:07;;;;;;;0.20;0.20;;;20.00;99.90;22.40;101526.00;;;;5094673;28;20192;-68
2022/06/21 07:01:51;;;;;;;0.10;0.10;;;21.30;99.90;22.70;101561.00;;;;5071814;28;20606;-69
2022/06/21 07:04:31;;;;;;;1.13;1.02;;;22.30;99.90;22.10;101556.00;;;;5090683;28;20284;-68
2022/06/21 07:07:13;;;;;;;0.32;0.32;;;21.90;99.90;21.90;101549.00;;;;5086002;28;20193;-68
2022/06/21 07:10:05;;;;;;;0.43;0.43;;;21.60;99.90;22.10;101549.00;;;;5079433;28;20278;-68
2022/06/21 07:13:03;;;;;;;0.20;0.20;;;21.80;99.90;24.10;101572.00;;;;5071632;28;20240;-68
2022/06/21 07:15:39;;;;;;;0.52;0.52;;;22.70;99.90;23.00;101568.00;;;;5068455;28;20194;-68
2022/06/21 07:18:20;;;;;;;1.20;1.20;;;22.80;99.90;22.90;101567.00;;;;5079596;28;20173;-68
2022/06/21 07:20:47;;;;;;;0.10;0.10;;;22.60;99.90;24.60;101579.00;;;;5094722;28;20237;-69
2022/06/21 07:23:20;;;;;;;0.28;0.28;;;23.20;99.90;23.70;101551.00;;;;5069516;28;20201;-68
2022/06/21 07:26:28;;;;;;;0.20;0.20;;;23.00;99.90;23.20;101576.00;;;;5075293;28;20185;-69
2022/06/21 07:29:28;;;;;;;0.35;0.35;;;23.00;99.90;23.90;101574.00;;;;5074916;28;20174;-68
2022/06/21 07:32:27;;;;;;;0.93;0.85;;;23.10;99.90;23.70;101574.00;;;;5095369;28;20313;-68
2022/06/21 07:35:08;;;;;;;0.50;0.50;;;22.60;99.90;24.50;101565.00;;;;5078412;28;20181;-68
2022/06/21 07:37:51;;;;;;;0.10;0.10;;;23.30;99.90;23.50;101562.00;;;;5095092;28;20172;-69
2022/06/21 07:41:10;;;;;;;0.10;0.10;;;22.90;99.90;22.50;101566.00;;;;5075432;28;20209;-70
2022/06/21 07:44:06;;;;;;;0.28;0.25;;;22.50;99.90;21.50;101554.00;;;;5045184;28;20202;-65
2022/06/21 07:47:21;;;;;;;3.05;1.27;;;21.60;99.90;21.10;101531.00;;;;5027413;28;20217;-68
2022/06/21 07:50:33;;;;;;;0.13;0.13;;;20.60;99.90;21.70;101534.00;;;;5088715;28;20237;-66
2022/06/21 07:53:18;;;;;;;0.10;0.10;;;20.60;99.90;20.80;101514.00;;;;5088380;28;20270;-70
2022/06/21 07:56:14;;;;;;;0.10;0.10;;;20.50;99.90;20.70;101507.00;;;;5076514;28;20245;-64
2022/06/21 07:59:03;;;;;;;0.35;0.35;;;20.20;99.90;23.10;101527.00;;;;5092930;28;20207;-65
2022/06/21 08:09:19;;;;;;;0.55;0.55;;;21.20;99.90;20.00;101489.00;;;;5091798;28;20184;-73
2022/06/21 08:11:50;;;;;;;2.10;0.32;;;20.40;99.90;20.90;101496.00;;;;5088118;28;20220;-72
2022/06/21 08:14:20;;;;;;;0.40;0.40;;;20.10;99.90;21.00;101500.00;;;;5092209;28;20531;-71
2022/06/21 08:17:30;;;;;;;0.15;0.15;;;20.30;99.90;21.90;101507.00;;;;5092767;28;20188;-66
2022/06/21 08:20:25;;;;;;;0.10;0.10;;;20.70;99.90;22.20;101510.00;;;;5091038;28;20196;-66
2022/06/21 08:23:45;;;;;;;1.08;1.05;;;21.10;99.90;20.50;101493.00;;;;5067841;28;20211;-76
2022/06/21 08:26:45;;;;;;;0.15;0.15;;;20.90;99.90;21.90;101480.00;;;;5057613;28;20205;-69
2022/06/21 08:29:43;;;;;;;1.85;1.63;;;20.90;99.90;20.10;101472.00;;;;5093012;28;20247;-67
2022/06/21 08:33:18;;;;;;;0.90;0.90;;;20.50;99.90;20.80;101474.00;;;;5075655;28;20213;-70
2022/06/21 08:36:15;;;;;;;0.30;0.30;;;20.20;99.90;22.20;101486.00;;;;5002811;28;20718;-68
2022/06/21 08:39:20;;;;;;;0.30;0.30;;;21.10;99.90;21.80;101483.00;;;;5017874;28;20203;-67
2022/06/21 08:42:43;;;;;;;0.10;0.10;;;21.40;99.90;23.30;101490.00;;;;5089288;28;20220;-64
2022/06/21 08:45:57;;;;;;;0.47;0.47;;;21.90;99.90;22.00;101490.00;;;;5094051;28;20172;-65
2022/06/21 08:49:01;;;;;;;0.10;0.10;;;21.40;99.90;22.20;101459.00;;;;5094018;28;20208;-66
2022/06/21 08:52:25;;;;;;;0.77;0.77;;;21.40;99.90;21.80;101478.00;;;;5092893;28;20695;-69
2022/06/21 08:55:47;;;;;;;0.52;0.52;;;21.10;99.90;21.20;101473.00;;;;5092622;28;20185;-66
2022/06/21 08:58:25;;;;;;;0.22;0.22;;;20.80;99.90;22.10;101476.00;;;;5092280;28;20209;-68
2022/06/21 09:02:04;;;;;;;1.05;1.05;;;21.10;99.90;21.40;101471.00;;;;5084473;28;20591;-67
2022/06/21 09:05:10;;;;;;;0.52;0.52;;;21.00;99.90;21.00;101451.00;;;;5011359;28;20282;-68
2022/06/21 09:08:15;;;;;;;0.98;0.98;;;20.90;99.90;21.30;101469.00;;;;5091020;28;20257;-68
2022/06/21 09:11:09;;;;;;;0.20;0.20;;;20.50;99.90;21.10;101465.00;;;;5090923;28;20223;-67
2022/06/21 09:14:19;;;;;;;0.50;0.50;;;20.40;99.90;20.40;101462.00;;;;5081835;28;20192;-67
2022/06/21 09:17:23;;;;;;;0.10;0.10;;;20.40;99.90;21.00;101463.00;;;;5089873;28;20654;-68
2022/06/21 09:20:17;;;;;;;0.90;0.90;;;19.80;99.90;19.60;101441.00;;;;5056441;28;20210;-66
2022/06/21 09:22:57;;;;;;;0.20;0.20;;;20.00;99.90;20.30;101433.00;;;;5073653;28;20215;-68
2022/06/21 09:25:50;;;;;;;0.43;0.43;;;19.60;99.90;20.70;101447.00;;;;5082428;28;20291;-61
2022/06/21 09:28:44;;;;;;;0.10;0.10;;;19.80;99.90;20.80;101448.00;;;;5073993;28;20236;-64
2022/06/21 09:31:38;;;;;;;17.45;9.27;;;20.00;99.90;19.70;101425.00;;;;5090822;28;20199;-64
2022/06/21 09:37:31;;;;;;;0.90;0.90;;;19.80;99.90;21.10;101454.00;;;;5084093;28;20200;-65
2022/06/21 09:40:50;;;;;;;0.43;0.30;;;20.10;99.90;20.50;101465.00;;;;5091296;28;20227;-64
2022/06/21 09:44:01;;;;;;;0.30;0.30;;;20.20;99.90;20.30;101471.00;;;;5091232;28;20742;-64
2022/06/21 09:47:31;;;;;;;0.38;0.38;;;19.90;99.90;20.80;101493.00;;;;5073628;28;20376;-64
2022/06/21 09:50:27;;;;;;;0.33;0.33;;;19.80;99.90;21.00;101505.00;;;;5049342;28;20678;-64
2022/06/21 09:52:58;;;;;;;0.60;0.60;;;20.30;99.90;19.50;101481.00;;;;5064026;28;20318;-64
2022/06/21 09:55:40;;;;;;;0.20;0.20;;;19.60;99.90;20.00;101475.00;;;;5073216;28;20238;-67
2022/06/21 09:58:54;;;;;;;0.30;0.30;;;19.50;99.90;20.60;101481.00;;;;5090557;28;20774;-66
2022/06/21 10:01:58;;;;;;;0.10;0.10;;;19.80;99.90;19.20;101454.00;;;;5073472;28;20678;-65
2022/06/21 10:05:01;;;;;;;0.10;0.10;;;19.20;99.90;20.60;101458.00;;;;5072971;28;20196;-70
2022/06/21 10:07:55;;;;;;;0.28;0.28;;;19.50;99.90;20.80;101484.00;;;;5072961;28;20195;-69
2022/06/21 10:10:55;;;;;;;0.20;0.20;;;19.80;99.90;20.90;101494.00;;;;5076526;28;20212;-68
2022/06/21 10:17:34;;;;;;;1.58;1.02;;;20.10;99.90;21.70;101493.00;;;;5049882;28;20205;-69
2022/06/21 10:20:13;;;;;;;0.30;0.30;;;20.60;99.90;21.10;101481.00;;;;5017022;28;20194;-68
2022/06/21 10:34:08;;;;;;;1.10;0.80;;;19.80;99.90;21.20;101483.00;;;;5129732;27;20514;-68
2022/06/21 10:37:23;;;;;;;0.68;0.60;;;20.20;99.90;21.70;101490.00;;;;5092286;28;20720;-66
2022/06/21 10:40:41;;;;;;;0.30;0.30;;;20.70;99.90;21.10;101463.00;;;;5108381;28;20180;-73
2022/06/21 10:44:05;;;;;;;0.40;0.40;;;20.50;99.90;20.30;101463.00;;;;5090915;28;20184;-72
2022/06/21 10:47:33;;;;;;;0.40;0.40;;;20.00;99.90;20.20;101468.00;;;;5026495;28;20202;-68
2022/06/21 10:51:08;;;;;;;0.65;0.65;;;20.10;99.90;21.90;101479.00;;;;5074832;28;20236;-72
2022/06/21 10:54:12;;;;;;;8.82;0.65;;;20.60;99.90;20.70;101477.00;;;;5067684;28;20203;-68
2022/06/21 10:57:12;;;;;;;0.20;0.20;;;20.60;99.90;21.70;101457.00;;;;5013688;27;20225;-64
2022/06/21 11:03:30;;;;;;;0.20;0.20;;;21.10;99.90;21.40;101452.00;;;;5074270;28;20200;-64
2022/06/21 11:06:49;;;;;;;0.38;0.38;;;21.00;99.90;20.40;101472.00;;;;5070791;28;20569;-64
2022/06/21 11:09:45;;;;;;;0.28;0.28;;;20.70;99.90;21.20;101477.00;;;;5079882;28;20208;-64
2022/06/21 11:15:40;;;;;;;0.22;0.22;;;20.70;99.90;20.40;101460.00;;;;5080364;28;20211;-64
2022/06/21 11:18:58;;;;;;;0.68;0.68;;;20.40;99.90;20.30;101457.00;;;;5087141;28;20188;-65
2022/06/21 11:22:14;;;;;;;0.30;0.30;;;20.20;99.90;21.10;101458.00;;;;5070485;28;20220;-66
2022/06/21 11:25:16;;;;;;;0.65;0.65;;;20.10;99.90;20.50;101441.00;;;;5088313;28;20177;-65
2022/06/21 11:28:12;;;;;;;0.20;0.20;;;20.40;99.90;21.30;101450.00;;;;5070467;28;20253;-65
2022/06/21 11:30:50;;;;;;;0.68;0.68;;;20.30;99.90;21.10;101442.00;;;;5104209;28;20249;-66
2022/06/21 11:33:37;;;;;;;0.32;0.32;;;20.40;99.90;21.30;101400.00;;;;5070713;28;20279;-66
2022/06/21 11:36:50;;;;;;;0.50;0.50;;;20.40;99.90;20.70;101433.00;;;;5086864;28;20197;-65
2022/06/21 11:39:50;;;;;;;0.10;0.10;;;20.30;99.90;20.00;101397.00;;;;5088484;28;20529;-66
2022/06/21 11:42:31;;;;;;;0.20;0.20;;;19.80;99.90;20.10;101435.00;;;;5088121;28;20658;-66
2022/06/21 11:45:38;;;;;;;0.10;0.10;;;19.50;99.90;20.80;101447.00;;;;5057511;28;20639;-66
2022/06/21 11:48:44;;;;;;;0.63;0.63;;;19.80;99.90;21.40;101457.00;;;;5040565;28;20187;-65
2022/06/21 11:51:10;;;;;;;1.10;0.95;;;20.30;99.90;20.90;101456.00;;;;5065313;28;20205;-64
2022/06/21 11:54:05;;;;;;;0.32;0.32;;;20.30;99.90;20.60;101456.00;;;;5064828;28;20274;-64
2022/06/21 11:56:48;;;;;;;0.28;0.28;;;20.10;99.90;21.50;101469.00;;;;5065108;28;20560;-64
2022/06/21 11:59:46;;;;;;;0.28;0.28;;;20.40;99.90;21.30;101463.00;;;;5057220;28;20189;-64
2022/06/21 12:02:30;;;;;;;0.10;0.10;;;20.50;99.90;21.30;101465.00;;;;5066093;28;20177;-64
2022/06/21 12:05:32;;;;;;;0.20;0.20;;;20.50;99.90;20.50;101453.00;;;;5063758;28;20644;-64
2022/06/21 12:08:27;;;;;;;0.40;0.40;;;20.10;99.90;21.00;101458.00;;;;5056576;28;20197;-64
2022/06/21 12:12:06;;;;;;;0.68;0.68;;;20.20;99.90;21.30;101424.00;;;;5039357;28;20644;-66
2022/06/21 12:14:49;;;;;;;0.10;0.10;;;20.30;99.90;20.90;101445.00;;;;5074470;28;20196;-64
2022/06/21 12:17:39;;;;;;;0.30;0.30;;;20.40;99.90;21.40;101435.00;;;;5064893;28;20193;-65
2022/06/21 12:20:37;;;;;;;1.15;1.15;;;20.40;99.90;21.20;101435.00;;;;5065070;28;20190;-65
2022/06/21 12:23:44;;;;;;;3.03;0.43;;;20.50;99.90;21.30;101434.00;;;;5035543;28;20212;-65
2022/06/21 12:26:32;;;;;;;;;;;;;;;;;;;;;
2022/06/21 12:29:07;;;;;;;0.40;0.40;;;20.60;99.90;21.20;101421.00;;;;5073713;28;20188;-67
2022/06/21 12:31:52;;;;;;;0.32;0.32;;;20.50;99.90;21.40;101428.00;;;;5072443;28;20239;-66
2022/06/21 12:34:51;;;;;;;0.20;0.20;;;20.60;99.90;21.60;101427.00;;;;5040107;28;20205;-62
2022/06/21 12:37:51;;;;;;;0.50;0.50;;;20.70;99.90;20.40;101414.00;;;;5065251;28;20628;-63
2022/06/21 12:41:05;;;;;;;0.30;0.30;;;20.40;99.90;20.60;101421.00;;;;5021857;28;20248;-63
2022/06/21 12:44:04;;;;;;;2.17;1.98;;;20.10;99.90;20.10;101417.00;;;;5073510;28;20178;-61
2022/06/21 12:47:09;;;;;;;2.72;1.15;;;20.20;99.90;20.20;101378.00;;;;5070845;28;20201;-63
2022/06/21 12:50:24;;;;;;;0.47;0.45;;;20.10;99.90;21.30;101424.00;;;;5073806;28;20596;-61
2022/06/21 12:53:47;;;;;;;0.35;0.35;;;20.40;99.90;21.40;101386.00;;;;5052075;28;20240;-62
2022/06/21 12:57:04;;;;;;;0.30;0.30;;;20.80;99.90;20.90;101410.00;;;;5048756;28;20731;-66
2022/06/21 13:00:16;;;;;;;0.30;0.30;;;20.60;99.90;21.50;101417.00;;;;5051185;28;20178;-63
2022/06/21 13:03:26;;;;;;;0.32;0.30;;;20.50;99.90;20.90;101410.00;;;;5055047;28;20542;-64
2022/06/21 13:06:36;;;;;;;0.63;0.50;;;20.40;99.90;20.50;101402.00;;;;5056458;28;20560;-67
2022/06/21 13:09:40;;;;;;;0.55;0.55;;;20.20;99.90;21.10;101409.00;;;;5056314;28;20185;-62
2022/06/21 13:12:15;;;;;;;0.50;0.50;;;20.30;99.90;20.70;101412.00;;;;5074218;28;20606;-62
2022/06/21 13:15:02;;;;;;;1.05;1.05;;;20.20;99.90;20.30;101404.00;;;;5074198;28;20187;-62
2022/06/21 13:17:50;;;;;;;0.80;0.30;;;20.20;99.90;20.60;101420.00;;;;5073681;28;20284;-62
2022/06/21 13:21:16;;;;;;;5.85;0.77;;;20.20;99.90;20.20;101414.00;;;;5052992;28;20196;-62
2022/06/21 13:24:22;;;;;;;0.20;0.20;;;20.00;99.90;20.10;101413.00;;;;5003015;28;20681;-61
2022/06/21 13:27:09;;;;;;;0.10;0.10;;;19.70;99.90;20.90;101418.00;;;;5055954;28;20189;-62
2022/06/21 13:30:32;;;;;;;0.65;0.65;;;20.10;99.90;22.00;101427.00;;;;5074306;28;20185;-60
2022/06/21 13:33:37;;;;;;;1.13;1.13;;;20.70;99.90;21.40;101392.00;;;;5073661;28;20224;-60
2022/06/21 13:36:43;;;;;;;0.60;0.60;;;20.80;99.90;21.40;101425.00;;;;5030140;28;20197;-61